EET,Max TemperatureF,Mean TemperatureF,Min TemperatureF,Max Dew PointF,MeanDew PointF,Min DewpointF,Max Humidity, Mean Humidity, Min Humidity, Max Sea Level PressureIn, Mean Sea Level PressureIn, Min Sea Level PressureIn, Max VisibilityMiles, Mean VisibilityMiles, Min VisibilityMiles, Max Wind SpeedMPH, Mean Wind SpeedMPH, Max Gust SpeedMPH,PrecipitationIn, CloudCover, Events, WindDirDegrees
2013-10-1,77,70,64,65,63,59,94,75,55,29.71,29.62,29.56,6,6,5,16,7,,0.12,3,Rain-Thunderstorm,318
2013-10-2,78,70,61,61,58,54,88,64,40,29.92,29.80,29.71,6,6,6,18,8,,0.00,1,,297
2013-10-3,76,68,60,54,50,45,72,52,32,30.15,30.05,29.92,6,6,6,12,7,,0.00,1,,330
2013-10-4,73,66,59,54,49,45,77,52,28,30.24,30.21,30.15,6,6,6,15,8,,0.00,3,,34
2013-10-5,74,64,55,55,48,43,88,57,25,30.27,30.23,30.18,6,6,6,15,6,,0.00,3,,62
2013-10-6,67,62,57,59,54,50,88,70,52,30.24,30.19,30.15,6,6,5,12,4,,0.02,8,Rain,125
2013-10-7,66,63,60,57,54,50,88,73,52,30.30,30.25,30.18,6,6,5,16,5,,0.08,8,Rain,92
2013-10-8,75,69,63,61,55,52,88,63,38,30.28,30.25,30.21,6,6,6,13,8,,0.04,6,Rain,99
2013-10-9,72,68,64,63,60,57,88,75,56,30.24,30.19,30.15,6,6,6,13,7,,0.12,5,Rain,118
2013-10-10,74,69,64,64,61,59,94,75,53,30.15,30.09,30.06,6,6,6,15,6,,0.00,5,Rain,147
2013-10-11,81,74,67,68,66,63,88,72,51,30.18,30.11,30.04,6,6,6,16,8,,0.00,5,Rain,173
2013-10-12,83,76,69,70,66,63,94,76,48,30.25,30.21,30.15,6,6,6,12,5,,0.00,2,,121
2013-10-13,82,74,64,68,66,63,94,85,60,30.21,30.17,30.12,6,6,4,10,4,,0.00,2,,23
2013-10-14,78,70,62,66,64,61,94,83,58,30.15,30.14,30.12,6,6,3,10,3,,0.00,2,,283
2013-10-15,80,73,66,66,63,59,94,81,45,30.15,30.10,30.01,6,6,6,14,3,,0.00,4,,350
2013-10-16,74,68,62,64,63,57,94,86,69,30.01,29.81,29.65,6,6,3,17,5,,0.28,7,Rain-Thunderstorm,90
2013-10-17,70,64,59,63,48,39,94,53,27,29.86,29.73,29.65,6,6,6,25,12,40,0.00,1,,315
2013-10-18,72,62,53,59,50,45,88,62,35,30.06,29.95,29.86,6,6,6,10,3,,0.00,,,300
2013-10-19,76,66,55,57,52,46,88,66,24,30.33,30.21,30.06,6,6,6,12,5,,0.00,1,,45
2013-10-20,74,64,55,59,54,50,88,68,36,30.42,30.37,30.33,6,6,6,10,5,,0.00,1,,32
2013-10-21,72,64,55,63,57,52,94,77,56,30.36,30.28,30.24,6,6,6,12,5,,0.00,1,,338
2013-10-22,72,65,58,66,59,55,94,82,58,30.25,30.20,30.15,6,6,6,8,3,,0.00,1,,339
2013-10-23,73,66,59,63,59,55,94,84,55,30.22,30.19,30.15,6,6,6,8,3,,0.00,1,,355
2013-10-24,76,68,61,63,57,50,94,72,34,30.24,30.19,30.18,6,6,6,9,5,,0.00,1,,20
2013-10-25,76,66,57,63,57,48,94,74,38,30.20,30.17,30.12,6,6,6,9,4,,0.00,1,,1
2013-10-26,73,64,56,61,58,54,94,79,49,30.21,30.19,30.15,6,6,6,8,5,,0.00,,Rain,21
2013-10-27,72,64,56,63,57,52,94,80,56,30.21,30.17,30.12,6,6,6,9,4,,0.00,2,,352
2013-10-28,73,66,59,63,59,57,94,82,56,30.15,30.11,30.06,6,6,6,8,5,,0.00,1,Rain,30
2013-10-29,73,64,56,63,59,55,100,83,56,30.11,30.06,30.01,6,6,6,9,4,,0.00,3,Rain,19
2013-10-30,72,64,57,61,60,55,94,85,58,30.09,30.06,30.04,6,6,3,6,2,,0.00,4,Rain,32
2013-10-31,73,65,57,63,59,54,100,81,57,30.18,30.13,30.09,6,6,5,10,4,,0.00,3,Rain,26